createdAt,value
2022-12-18T00:01:15.404Z,-2.27
2022-12-18T00:03:42.479Z,-2.27
2022-12-18T00:06:10.138Z,-2.27
2022-12-18T00:08:36.939Z,-2.27
2022-12-18T00:11:13.202Z,-2.27
2022-12-18T00:13:40.572Z,-2.29
2022-12-18T00:16:10.679Z,-2.32
2022-12-18T00:18:38.255Z,-2.32
2022-12-18T00:21:07.774Z,-2.32
2022-12-18T00:23:36.258Z,-2.34
2022-12-18T00:26:06.940Z,-2.34
2022-12-18T00:28:34.104Z,-2.34
2022-12-18T00:31:05.522Z,-2.36
2022-12-18T00:33:32.812Z,-2.36
2022-12-18T00:36:08.218Z,-2.36
2022-12-18T00:38:36.029Z,-2.37
2022-12-18T00:41:02.931Z,-2.39
2022-12-18T00:43:29.598Z,-2.38
2022-12-18T00:45:56.295Z,-2.38
2022-12-18T00:48:23.085Z,-2.38
2022-12-18T00:50:50.890Z,-2.39
2022-12-18T00:53:17.609Z,-2.40
2022-12-18T00:55:45.047Z,-2.41
2022-12-18T00:58:12.423Z,-2.44
2022-12-18T01:00:39.172Z,-2.47
2022-12-18T01:03:06.577Z,-2.48
2022-12-18T01:05:33.903Z,-2.49
2022-12-18T01:08:00.945Z,-2.51
2022-12-18T01:10:27.734Z,-2.54
2022-12-18T01:12:54.355Z,-2.57
2022-12-18T01:15:21.493Z,-2.58
2022-12-18T01:17:48.112Z,-2.57
2022-12-18T01:20:14.969Z,-2.57
2022-12-18T01:22:41.487Z,-2.61
2022-12-18T01:25:08.750Z,-2.62
2022-12-18T01:27:35.517Z,-2.62
2022-12-18T01:30:02.240Z,-2.61
2022-12-18T01:32:32.289Z,-2.61
2022-12-18T01:34:58.918Z,-2.64
2022-12-18T01:37:25.476Z,-2.63
2022-12-18T01:39:55.328Z,-2.65
2022-12-18T01:42:23.087Z,-2.65
2022-12-18T01:45:06.192Z,-2.65
2022-12-18T01:47:39.971Z,-2.65
2022-12-18T01:50:11.492Z,-2.65
2022-12-18T01:52:43.690Z,-2.67
2022-12-18T01:55:12.155Z,-2.66
2022-12-18T01:57:41.403Z,-2.66
2022-12-18T02:00:20.148Z,-2.67
2022-12-18T02:02:48.037Z,-2.70
2022-12-18T02:05:40.228Z,-2.71
2022-12-18T02:08:13.943Z,-2.74
2022-12-18T02:10:49.731Z,-2.71
2022-12-18T02:13:29.040Z,-2.75
2022-12-18T02:16:17.381Z,-2.74
2022-12-18T02:18:49.313Z,-2.74
2022-12-18T02:21:36.217Z,-2.75
2022-12-18T02:24:17.950Z,-2.77
2022-12-18T02:26:58.196Z,-2.76
2022-12-18T02:29:36.577Z,-2.76
2022-12-18T02:32:08.482Z,-2.77
2022-12-18T02:34:39.185Z,-2.79
2022-12-18T02:37:12.272Z,-2.77
2022-12-18T02:39:42.754Z,-2.79
2022-12-18T02:42:09.859Z,-2.79
2022-12-18T02:44:45.564Z,-2.78
2022-12-18T02:47:13.825Z,-2.80
2022-12-18T02:49:58.919Z,-2.79
2022-12-18T02:52:31.525Z,-2.79
2022-12-18T02:55:01.005Z,-2.81
2022-12-18T02:57:57.632Z,-2.82
2022-12-18T03:00:32.012Z,-2.85
2022-12-18T03:03:04.483Z,-2.85
2022-12-18T03:05:54.715Z,-2.89
2022-12-18T03:08:28.980Z,-2.91
2022-12-18T03:11:10.925Z,-2.94
2022-12-18T03:13:43.663Z,-2.95
2022-12-18T03:16:16.019Z,-2.97
2022-12-18T03:18:55.754Z,-2.97
2022-12-18T03:21:31.094Z,-2.98
2022-12-18T03:23:58.175Z,-3.03
2022-12-18T03:26:27.838Z,-3.05
2022-12-18T03:29:00.944Z,-3.09
2022-12-18T03:31:30.709Z,-3.09
2022-12-18T03:34:02.361Z,-3.12
2022-12-18T03:36:32.675Z,-3.13
2022-12-18T03:38:59.407Z,-3.14
2022-12-18T03:41:32.088Z,-3.14
2022-12-18T03:44:11.944Z,-3.15
2022-12-18T03:47:02.861Z,-3.15
2022-12-18T03:49:52.840Z,-3.17
2022-12-18T03:52:27.757Z,-3.20
2022-12-18T03:54:56.118Z,-3.20
2022-12-18T03:57:26.468Z,-3.22
2022-12-18T03:59:58.533Z,-3.24
2022-12-18T04:02:26.298Z,-3.23
2022-12-18T04:05:00.716Z,-3.25
2022-12-18T04:07:28.436Z,-3.26
2022-12-18T04:09:59.351Z,-3.26
2022-12-18T04:12:29.810Z,-3.27
2022-12-18T04:14:56.661Z,-3.31
2022-12-18T04:17:23.679Z,-3.31
2022-12-18T04:19:50.589Z,-3.32
2022-12-18T04:22:17.399Z,-3.32
2022-12-18T04:24:44.242Z,-3.34
2022-12-18T04:27:10.812Z,-3.33
2022-12-18T04:29:37.344Z,-3.33
2022-12-18T04:32:03.936Z,-3.33
2022-12-18T04:34:30.518Z,-3.34
2022-12-18T04:36:57.582Z,-3.33
2022-12-18T04:39:24.283Z,-3.34
2022-12-18T04:41:51.587Z,-3.35
2022-12-18T04:44:18.301Z,-3.36
2022-12-18T04:46:44.935Z,-3.37
2022-12-18T04:49:11.830Z,-3.37
2022-12-18T04:51:39.354Z,-3.42
2022-12-18T04:54:05.992Z,-3.44
2022-12-18T04:56:33.115Z,-3.44
2022-12-18T04:58:59.684Z,-3.45
2022-12-18T05:01:32.573Z,-3.47
2022-12-18T05:04:01.572Z,-3.53
2022-12-18T05:06:28.389Z,-3.55
2022-12-18T05:08:54.980Z,-3.55
2022-12-18T05:11:21.575Z,-3.57
2022-12-18T05:13:48.490Z,-3.57
2022-12-18T05:16:15.766Z,-3.58
2022-12-18T05:18:42.908Z,-3.62
2022-12-18T05:21:09.728Z,-3.67
2022-12-18T05:23:37.115Z,-3.68
2022-12-18T05:26:06.467Z,-3.74
2022-12-18T05:28:35.499Z,-3.73
2022-12-18T05:31:04.257Z,-3.75
2022-12-18T05:33:34.168Z,-3.79
2022-12-18T05:36:02.952Z,-3.79
2022-12-18T05:38:31.007Z,-3.84
2022-12-18T05:40:57.859Z,-3.84
2022-12-18T05:43:26.414Z,-3.88
2022-12-18T05:45:54.022Z,-3.90
2022-12-18T05:48:21.146Z,-3.91
2022-12-18T05:50:49.573Z,-3.93
2022-12-18T05:53:18.219Z,-3.96
2022-12-18T05:55:45.570Z,-3.95
2022-12-18T05:58:13.827Z,-3.96
2022-12-18T06:00:45.915Z,-3.97
2022-12-18T06:03:14.723Z,-3.99
2022-12-18T06:05:44.567Z,-4.04
2022-12-18T06:08:12.552Z,-4.08
2022-12-18T06:10:39.660Z,-4.10
2022-12-18T06:13:07.064Z,-4.11
2022-12-18T06:15:34.008Z,-4.16
2022-12-18T06:18:02.031Z,-4.19
2022-12-18T06:20:33.665Z,-4.22
2022-12-18T06:23:00.831Z,-4.22
2022-12-18T06:25:27.405Z,-4.26
2022-12-18T06:27:54.060Z,-4.27
2022-12-18T06:30:20.815Z,-4.29
2022-12-18T06:32:54.654Z,-4.28
2022-12-18T06:35:23.620Z,-4.30
2022-12-18T06:37:50.252Z,-4.35
2022-12-18T06:40:17.347Z,-4.34
2022-12-18T06:42:43.999Z,-4.36
2022-12-18T06:45:11.033Z,-4.37
2022-12-18T06:47:37.666Z,-4.37
2022-12-18T06:50:04.411Z,-4.41
2022-12-18T06:52:33.401Z,-4.39
2022-12-18T06:55:00.223Z,-4.39
2022-12-18T06:57:26.846Z,-4.43
2022-12-18T06:59:53.593Z,-4.42
2022-12-18T07:02:20.255Z,-4.43
2022-12-18T07:04:46.970Z,-4.42
2022-12-18T07:07:13.563Z,-4.42
2022-12-18T07:09:40.208Z,-4.42
2022-12-18T07:12:07.835Z,-4.40
2022-12-18T07:14:34.603Z,-4.41
2022-12-18T07:17:01.313Z,-4.40
2022-12-18T07:19:28.153Z,-4.40
2022-12-18T07:21:55.852Z,-4.39
2022-12-18T07:24:22.430Z,-4.40
2022-12-18T07:26:49.060Z,-4.40
2022-12-18T07:29:15.827Z,-4.39
2022-12-18T07:31:42.600Z,-4.37
2022-12-18T07:34:13.827Z,-4.39
2022-12-18T07:36:40.396Z,-4.38
2022-12-18T07:39:07.080Z,-4.37
2022-12-18T07:41:33.676Z,-4.35
2022-12-18T07:44:00.458Z,-4.36
2022-12-18T07:46:27.015Z,-4.33
2022-12-18T07:48:53.622Z,-4.32
2022-12-18T07:51:20.299Z,-4.32
2022-12-18T07:53:48.793Z,-4.30
2022-12-18T07:56:28.572Z,-4.27
2022-12-18T07:58:56.460Z,-4.25
2022-12-18T08:01:26.665Z,-4.22
2022-12-18T08:03:53.546Z,-4.19
2022-12-18T08:06:22.433Z,-4.16
2022-12-18T08:08:52.398Z,-4.15
2022-12-18T08:11:20.407Z,-4.12
2022-12-18T08:13:48.274Z,-4.10
2022-12-18T08:16:15.716Z,-4.08
2022-12-18T08:18:42.368Z,-4.03
2022-12-18T08:21:19.166Z,-4.01
2022-12-18T08:23:50.298Z,-3.97
2022-12-18T08:26:18.612Z,-3.92
2022-12-18T08:28:45.847Z,-3.88
2022-12-18T08:31:12.824Z,-3.86
2022-12-18T08:33:40.422Z,-3.84
2022-12-18T08:36:10.106Z,-3.78
2022-12-18T08:38:36.898Z,-3.75
2022-12-18T08:41:08.444Z,-3.69
2022-12-18T08:43:53.752Z,-3.66
2022-12-18T08:46:22.352Z,-3.60
2022-12-18T08:48:51.244Z,-3.54
2022-12-18T08:51:18.600Z,-3.49
2022-12-18T08:53:45.635Z,-3.44
2022-12-18T08:56:15.853Z,-3.39
2022-12-18T08:58:43.341Z,-3.34
2022-12-18T09:01:11.915Z,-3.30
2022-12-18T09:03:39.755Z,-3.25
2022-12-18T09:06:07.104Z,-3.21
2022-12-18T09:08:38.032Z,-3.18
2022-12-18T09:11:05.096Z,-3.13
2022-12-18T09:13:32.143Z,-3.09
2022-12-18T09:15:59.215Z,-3.06
2022-12-18T09:18:26.119Z,-3.03
2022-12-18T09:20:53.910Z,-3.01
2022-12-18T09:23:23.992Z,-2.98
2022-12-18T09:25:50.555Z,-2.94
2022-12-18T09:28:19.201Z,-2.88
2022-12-18T09:30:50.951Z,-2.85
2022-12-18T09:33:18.438Z,-2.80
2022-12-18T09:35:48.167Z,-2.76
2022-12-18T09:38:18.899Z,-2.71
2022-12-18T09:40:50.352Z,-2.64
2022-12-18T09:43:39.764Z,-2.58
2022-12-18T09:46:11.384Z,-2.51
2022-12-18T09:48:45.199Z,-2.45
2022-12-18T09:51:20.077Z,-2.39
2022-12-18T09:53:56.739Z,-2.34
2022-12-18T09:56:25.985Z,-2.30
2022-12-18T09:59:00.957Z,-2.23
2022-12-18T10:01:36.356Z,-2.19
2022-12-18T10:04:10.678Z,-2.16
2022-12-18T10:06:48.787Z,-2.12
2022-12-18T10:09:45.779Z,-2.06
2022-12-18T10:12:15.427Z,-2.01
2022-12-18T10:14:58.318Z,-1.99
2022-12-18T10:18:06.660Z,-1.94
2022-12-18T10:20:47.350Z,-1.89
2022-12-18T10:23:38.049Z,-1.83
2022-12-18T10:26:10.518Z,-1.75
2022-12-18T10:28:40.338Z,-1.72
2022-12-18T10:31:25.069Z,-1.69
2022-12-18T10:33:54.712Z,-1.62
2022-12-18T10:36:22.372Z,-1.61
2022-12-18T10:38:50.728Z,-1.57
2022-12-18T10:41:21.766Z,-1.52
2022-12-18T10:43:48.943Z,-1.50
2022-12-18T10:46:20.796Z,-1.46
2022-12-18T10:48:47.397Z,-1.42
2022-12-18T10:51:34.474Z,-1.35
2022-12-18T10:54:27.278Z,-1.30
2022-12-18T10:57:17.621Z,-1.22
2022-12-18T10:59:56.599Z,-1.16
2022-12-18T11:02:36.196Z,-1.10
2022-12-18T11:05:06.329Z,-1.06
2022-12-18T11:07:51.689Z,-1.02
2022-12-18T11:10:20.026Z,-0.98
2022-12-18T11:12:47.566Z,-0.98
2022-12-18T11:15:25.635Z,-0.94
2022-12-18T11:17:53.045Z,-0.90
2022-12-18T11:20:36.782Z,-0.86
2022-12-18T11:23:07.079Z,-0.82
2022-12-18T11:25:35.967Z,-0.80
2022-12-18T11:28:26.805Z,-0.77
2022-12-18T11:31:16.568Z,-0.71
2022-12-18T11:34:26.987Z,-0.69
2022-12-18T11:36:49.136Z,-0.67
2022-12-18T11:39:47.397Z,-0.62
2022-12-18T11:42:19.526Z,-0.60
2022-12-18T11:44:59.265Z,-0.60
2022-12-18T11:47:44.082Z,-0.59
2022-12-18T11:50:35.191Z,-0.57
2022-12-18T11:53:06.150Z,-0.54
2022-12-18T11:56:21.838Z,-0.54
2022-12-18T11:59:09.569Z,-0.52
2022-12-18T12:01:44.287Z,-0.50
2022-12-18T12:04:24.490Z,-0.53
2022-12-18T12:07:04.062Z,-0.50
2022-12-18T12:09:48.724Z,-0.46
2022-12-18T12:12:48.629Z,-0.43
2022-12-18T12:15:25.087Z,-0.39
2022-12-18T12:18:00.596Z,-0.40
2022-12-18T12:20:45.699Z,-0.39
2022-12-18T12:23:17.927Z,-0.40
2022-12-18T12:25:47.722Z,-0.35
2022-12-18T12:28:25.746Z,-0.36
2022-12-18T12:31:19.747Z,-0.32
2022-12-18T12:34:01.634Z,-0.31
2022-12-18T12:36:56.660Z,-0.30
2022-12-18T12:39:30.948Z,-0.26
2022-12-18T12:42:17.171Z,-0.23
2022-12-18T12:44:57.111Z,-0.18
2022-12-18T12:47:40.172Z,-0.15
2022-12-18T12:50:15.562Z,-0.16
2022-12-18T12:52:50.527Z,-0.11
2022-12-18T12:55:23.788Z,-0.07
2022-12-18T12:57:55.039Z,-0.05
2022-12-18T13:00:23.238Z,-0.04
2022-12-18T13:02:52.482Z,-0.05
2022-12-18T13:05:44.520Z,-0.10
2022-12-18T13:08:22.931Z,-0.14
2022-12-18T13:11:11.174Z,-0.10
2022-12-18T13:13:55.374Z,-0.07
2022-12-18T13:16:28.573Z,-0.04
2022-12-18T13:19:00.367Z,-0.02
2022-12-18T13:21:30.325Z,-0.01
2022-12-18T13:23:58.358Z,0.01
2022-12-18T13:26:28.727Z,0.04
2022-12-18T13:28:57.959Z,0.03
2022-12-18T13:31:30.914Z,0.05
2022-12-18T13:34:28.048Z,0.07
2022-12-18T13:36:56.689Z,0.08
2022-12-18T13:39:35.028Z,0.10
2022-12-18T13:42:08.637Z,0.08
2022-12-18T13:44:40.838Z,0.11
2022-12-18T13:47:29.826Z,0.13
2022-12-18T13:49:57.557Z,0.12
2022-12-18T13:52:28.602Z,0.13
2022-12-18T13:55:01.513Z,0.13
2022-12-18T13:57:34.182Z,0.11
2022-12-18T14:00:24.165Z,0.06
2022-12-18T14:02:51.830Z,0.09
2022-12-18T14:05:36.837Z,0.09
2022-12-18T14:08:14.846Z,0.08
2022-12-18T14:10:49.521Z,0.09
2022-12-18T14:13:37.254Z,0.07
2022-12-18T14:16:06.863Z,0.05
2022-12-18T14:18:45.245Z,0.05
2022-12-18T14:21:30.415Z,0.05
2022-12-18T14:24:15.232Z,0.06
2022-12-18T14:26:45.667Z,0.05
2022-12-18T14:29:44.037Z,0.07
2022-12-18T14:32:19.567Z,0.05
2022-12-18T14:34:51.385Z,0.05
2022-12-18T14:37:28.507Z,0.04
2022-12-18T14:40:10.492Z,0.04
2022-12-18T14:42:38.488Z,0.03
2022-12-18T14:45:40.939Z,0.02
2022-12-18T14:48:13.787Z,-0.01
2022-12-18T14:50:42.877Z,-0.01
2022-12-18T14:53:22.744Z,-0.03
2022-12-18T14:55:50.046Z,-0.06
2022-12-18T14:58:20.011Z,-0.05
2022-12-18T15:00:46.823Z,-0.08
2022-12-18T15:03:20.005Z,-0.09
2022-12-18T15:05:47.404Z,-0.10
2022-12-18T15:08:36.572Z,-0.14
2022-12-18T15:11:05.621Z,-0.15
2022-12-18T15:13:35.627Z,-0.17
2022-12-18T15:16:04.277Z,-0.19
2022-12-18T15:18:42.552Z,-0.20
2022-12-18T15:21:11.853Z,-0.23
2022-12-18T15:23:44.808Z,-0.25
2022-12-18T15:26:14.405Z,-0.28
2022-12-18T15:28:59.547Z,-0.30
2022-12-18T15:31:36.306Z,-0.33
2022-12-18T15:34:10.891Z,-0.36
2022-12-18T15:36:37.614Z,-0.39
2022-12-18T15:39:06.875Z,-0.43
2022-12-18T15:41:35.841Z,-0.47
2022-12-18T15:44:03.840Z,-0.50
2022-12-18T15:46:31.735Z,-0.51
2022-12-18T15:49:02.642Z,-0.54
2022-12-18T15:51:34.275Z,-0.55
2022-12-18T15:54:04.941Z,-0.58
2022-12-18T15:56:50.891Z,-0.61
2022-12-18T15:59:20.230Z,-0.64
2022-12-18T16:01:53.927Z,-0.67
2022-12-18T16:04:22.357Z,-0.71
2022-12-18T16:09:37.618Z,-0.78
2022-12-18T16:12:04.339Z,-0.80
2022-12-18T16:14:31.870Z,-0.81
2022-12-18T16:17:01.339Z,-0.85
2022-12-18T16:19:28.632Z,-0.88
2022-12-18T16:21:57.776Z,-0.90
2022-12-18T16:24:27.235Z,-0.94
2022-12-18T16:26:55.000Z,-0.98
2022-12-18T16:29:25.844Z,-0.99
2022-12-18T16:31:53.145Z,-0.97
2022-12-18T16:34:35.805Z,-1.00
2022-12-18T16:37:08.311Z,-1.01
2022-12-18T16:39:35.985Z,-1.04
2022-12-18T16:42:06.024Z,-1.06
2022-12-18T16:44:33.903Z,-1.06
2022-12-18T16:47:03.418Z,-1.10
2022-12-18T16:49:30.387Z,-1.10
2022-12-18T16:51:57.309Z,-1.12
2022-12-18T16:54:24.078Z,-1.13
2022-12-18T16:56:53.828Z,-1.16
2022-12-18T16:59:20.466Z,-1.19
2022-12-18T17:01:47.760Z,-1.20
2022-12-18T17:04:15.269Z,-1.24
2022-12-18T17:06:44.085Z,-1.24
2022-12-18T17:09:16.442Z,-1.26
2022-12-18T17:11:43.811Z,-1.31
2022-12-18T17:14:15.915Z,-1.30
2022-12-18T17:16:43.021Z,-1.33
2022-12-18T17:19:16.662Z,-1.36
2022-12-18T17:21:45.611Z,-1.37
2022-12-18T17:24:12.422Z,-1.40
2022-12-18T17:26:39.104Z,-1.39
2022-12-18T17:29:15.517Z,-1.42
2022-12-18T17:31:42.956Z,-1.43
2022-12-18T17:34:14.711Z,-1.48
2022-12-18T17:36:42.320Z,-1.50
2022-12-18T17:39:16.563Z,-1.50
2022-12-18T17:41:43.465Z,-1.53
2022-12-18T17:44:10.495Z,-1.55
2022-12-18T17:46:37.138Z,-1.56
2022-12-18T17:49:04.693Z,-1.59
2022-12-18T17:51:31.319Z,-1.62
2022-12-18T17:53:58.303Z,-1.66
2022-12-18T17:56:28.424Z,-1.68
2022-12-18T17:58:55.558Z,-1.69
2022-12-18T18:01:24.924Z,-1.69
2022-12-18T18:03:53.521Z,-1.72
2022-12-18T18:06:21.186Z,-1.76
2022-12-18T18:08:48.291Z,-1.78
2022-12-18T18:11:36.264Z,-1.82
2022-12-18T18:14:07.091Z,-1.84
2022-12-18T18:16:37.119Z,-1.88
2022-12-18T18:19:09.401Z,-1.91
2022-12-18T18:21:39.295Z,-1.96
2022-12-18T18:24:07.339Z,-2.00
2022-12-18T18:26:35.545Z,-2.01
2022-12-18T18:29:05.223Z,-2.08
2022-12-18T18:31:35.255Z,-2.10
2022-12-18T18:34:08.203Z,-2.14
2022-12-18T18:36:34.964Z,-2.16
2022-12-18T18:39:02.500Z,-2.20
2022-12-18T18:41:30.625Z,-2.25
2022-12-18T18:43:58.231Z,-2.28
2022-12-18T18:46:25.751Z,-2.30
2022-12-18T18:48:52.439Z,-2.33
2022-12-18T18:51:21.513Z,-2.36
2022-12-18T18:53:53.651Z,-2.39
2022-12-18T18:59:09.628Z,-2.46
2022-12-18T19:01:38.666Z,-2.50
2022-12-18T19:04:08.199Z,-2.52
2022-12-18T19:06:34.913Z,-2.56
2022-12-18T19:09:05.021Z,-2.58
2022-12-18T19:11:50.683Z,-2.58
2022-12-18T19:14:17.520Z,-2.61
2022-12-18T19:16:45.513Z,-2.62
2022-12-18T19:19:13.570Z,-2.63
2022-12-18T19:21:40.858Z,-2.66
2022-12-18T19:24:10.793Z,-2.66
2022-12-18T19:26:37.843Z,-2.71
2022-12-18T19:29:12.105Z,-2.72
2022-12-18T19:31:38.894Z,-2.74
2022-12-18T19:34:07.145Z,-2.76
2022-12-18T19:36:37.338Z,-2.77
2022-12-18T19:39:10.250Z,-2.78
2022-12-18T19:41:37.046Z,-2.80
2022-12-18T19:44:08.278Z,-2.81
2022-12-18T19:46:36.035Z,-2.84
2022-12-18T19:49:05.752Z,-2.87
2022-12-18T19:51:32.894Z,-2.87
2022-12-18T19:54:01.863Z,-2.88
2022-12-18T19:56:37.896Z,-2.89
2022-12-18T19:59:05.463Z,-2.89
2022-12-18T20:01:32.705Z,-2.93
2022-12-18T20:04:01.096Z,-2.93
2022-12-18T20:06:34.254Z,-2.96
2022-12-18T20:09:04.297Z,-2.98
2022-12-18T20:11:32.061Z,-3.00
2022-12-18T20:14:03.603Z,-3.01
2022-12-18T20:16:30.596Z,-3.03
2022-12-18T20:18:58.407Z,-3.04
2022-12-18T20:21:25.671Z,-3.06
2022-12-18T20:23:52.412Z,-3.10
2022-12-18T20:26:22.625Z,-3.10
2022-12-18T20:28:49.365Z,-3.12
2022-12-18T20:31:16.166Z,-3.15
2022-12-18T20:33:43.296Z,-3.14
2022-12-18T20:36:17.089Z,-3.18
2022-12-18T20:38:48.438Z,-3.17
2022-12-18T20:41:22.155Z,-3.20
2022-12-18T20:43:48.789Z,-3.22
2022-12-18T20:46:17.166Z,-3.24
2022-12-18T20:48:44.916Z,-3.27
2022-12-18T20:51:18.412Z,-3.28
2022-12-18T20:53:46.442Z,-3.28
2022-12-18T20:56:21.334Z,-3.30
2022-12-18T20:58:49.626Z,-3.32
2022-12-18T21:01:19.208Z,-3.34
2022-12-18T21:03:46.683Z,-3.34
2022-12-18T21:06:15.557Z,-3.39
2022-12-18T21:08:42.540Z,-3.40
2022-12-18T21:11:54.006Z,-3.43
2022-12-18T21:14:23.860Z,-3.44
2022-12-18T21:16:51.358Z,-3.43
2022-12-18T21:19:20.907Z,-3.44
2022-12-18T21:21:47.606Z,-3.47
2022-12-18T21:24:14.781Z,-3.47
2022-12-18T21:26:45.783Z,-3.48
2022-12-18T21:29:20.969Z,-3.50
2022-12-18T21:31:48.622Z,-3.50
2022-12-18T21:34:21.387Z,-3.51
2022-12-18T21:36:49.259Z,-3.50
2022-12-18T21:39:16.360Z,-3.53
2022-12-18T21:42:01.938Z,-3.53
2022-12-18T21:44:29.132Z,-3.55
2022-12-18T21:47:02.410Z,-3.55
2022-12-18T21:49:36.167Z,-3.57
2022-12-18T21:52:02.796Z,-3.57
2022-12-18T21:54:30.175Z,-3.59
2022-12-18T21:56:59.010Z,-3.60
2022-12-18T21:59:35.023Z,-3.62
2022-12-18T22:02:07.335Z,-3.63
2022-12-18T22:04:34.294Z,-3.64
2022-12-18T22:07:00.916Z,-3.66
2022-12-18T22:09:28.229Z,-3.68
2022-12-18T22:11:55.071Z,-3.70
2022-12-18T22:14:22.235Z,-3.70
2022-12-18T22:16:49.828Z,-3.72
2022-12-18T22:19:17.914Z,-3.75
2022-12-18T22:21:49.089Z,-3.78
2022-12-18T22:24:19.726Z,-3.77
2022-12-18T22:26:47.390Z,-3.80
2022-12-18T22:29:41.374Z,-3.81
2022-12-18T22:32:13.073Z,-3.84
2022-12-18T22:34:41.852Z,-3.84
2022-12-18T22:37:10.665Z,-3.85
2022-12-18T22:39:37.246Z,-3.87
2022-12-18T22:42:05.408Z,-3.88
2022-12-18T22:44:35.065Z,-3.91
2022-12-18T22:47:06.416Z,-3.92
2022-12-18T22:49:34.805Z,-3.95
2022-12-18T22:52:02.040Z,-3.95
2022-12-18T22:54:28.625Z,-3.98
2022-12-18T22:56:55.561Z,-3.99
2022-12-18T22:59:23.323Z,-4.01
2022-12-18T23:01:51.579Z,-4.02
2022-12-18T23:04:30.600Z,-4.02
2022-12-18T23:07:06.114Z,-4.04
2022-12-18T23:09:33.436Z,-4.04
2022-12-18T23:12:00.535Z,-4.05
2022-12-18T23:14:28.256Z,-4.05
2022-12-18T23:16:55.055Z,-4.07
2022-12-18T23:19:23.583Z,-4.09
2022-12-18T23:21:51.197Z,-4.10
2022-12-18T23:24:17.969Z,-4.13
2022-12-18T23:26:44.524Z,-4.11
2022-12-18T23:29:11.272Z,-4.12
2022-12-18T23:31:39.252Z,-4.13
2022-12-18T23:34:06.490Z,-4.16
2022-12-18T23:36:45.315Z,-4.18
2022-12-18T23:39:27.550Z,-4.19
2022-12-18T23:41:59.884Z,-4.21
2022-12-18T23:44:26.729Z,-4.22
2022-12-18T23:46:53.473Z,-4.24
2022-12-18T23:49:20.112Z,-4.24
2022-12-18T23:51:46.705Z,-4.25
2022-12-18T23:54:13.338Z,-4.25
2022-12-18T23:56:40.104Z,-4.26
2022-12-18T23:59:06.771Z,-4.26
